Time;durP1;ratioP1;P1;durP2;ratioP2;P2;SDS_P1;SDS_P2;PMS_P1;PMS_P2;Temp;Humidity;BMP_temperature;BMP_pressure;BME280_temperature;BME280_humidity;BME280_pressure;Samples;Min_cycle;Max_cycle;Signal;HPM_P1;HPM_P2
2023/04/18 00:02:09;;;;;;;13.63;8.33;;;;;;;7.99;87.58;102403.47;5059207;28;20119;-94
2023/04/18 00:04:40;;;;;;;17.38;8.75;;;;;;;7.94;87.43;102399.56;5059634;28;20461;-95
2023/04/18 00:07:05;;;;;;;15.10;8.60;;;;;;;7.98;87.85;102406.34;5042270;28;20078;-94
2023/04/18 00:09:31;;;;;;;14.60;8.27;;;;;;;7.87;88.17;102402.06;5059283;28;20074;-94
2023/04/18 00:12:00;;;;;;;15.27;8.93;;;;;;;7.84;88.47;102396.94;5059538;28;20028;-93
2023/04/18 00:14:34;;;;;;;18.17;9.07;;;;;;;7.81;88.58;102394.56;5059224;28;20025;-94
2023/04/18 00:17:01;;;;;;;14.02;8.68;;;;;;;7.82;88.58;102404.38;5059272;28;20032;-94
2023/04/18 00:19:38;;;;;;;13.27;9.07;;;;;;;7.78;88.52;102397.59;5058812;28;20032;-94
2023/04/18 00:22:09;;;;;;;15.32;9.23;;;;;;;7.77;88.51;102406.72;5042628;28;20033;-94
2023/04/18 00:24:39;;;;;;;12.90;8.35;;;;;;;7.65;89.10;102398.03;5058140;28;20056;-94
2023/04/18 00:27:07;;;;;;;14.35;9.45;;;;;;;7.62;89.14;102392.91;5042372;28;20056;-94
2023/04/18 00:29:35;;;;;;;15.57;9.35;;;;;;;7.69;89.68;102411.06;5058194;28;20405;-95
2023/04/18 00:32:01;;;;;;;14.43;9.47;;;;;;;7.58;89.71;102405.91;5042758;28;20037;-95
2023/04/18 00:34:29;;;;;;;14.18;9.18;;;;;;;7.58;90.01;102396.97;5059110;28;20078;-94
2023/04/18 00:36:57;;;;;;;16.63;9.20;;;;;;;7.59;90.20;102404.91;5042242;28;20032;-94
2023/04/18 00:39:28;;;;;;;15.10;9.15;;;;;;;7.52;90.66;102398.44;5025231;28;20040;-95
2023/04/18 00:41:55;;;;;;;18.02;9.80;;;;;;;7.43;90.33;102381.31;5058742;28;20021;-94
2023/04/18 00:44:26;;;;;;;16.05;9.82;;;;;;;7.38;90.67;102389.03;5058907;28;20183;-95
2023/04/18 00:46:54;;;;;;;13.50;9.27;;;;;;;7.46;91.47;102399.91;5076492;28;20047;-94
2023/04/18 00:49:23;;;;;;;15.23;9.23;;;;;;;7.37;91.35;102390.88;5041784;28;20039;-95
2023/04/18 00:51:52;;;;;;;14.27;9.65;;;;;;;7.31;91.54;102385.28;5058035;28;20400;-94
2023/04/18 00:54:18;;;;;;;17.20;9.55;;;;;;;7.33;91.47;102392.19;5058325;28;20131;-94
2023/04/18 00:56:46;;;;;;;16.13;9.32;;;;;;;7.37;90.44;102400.84;5076132;28;20100;-95
2023/04/18 00:59:12;;;;;;;16.93;10.07;;;;;;;7.28;89.16;102383.72;5041698;28;20043;-94
2023/04/18 01:01:42;;;;;;;18.48;9.20;;;;;;;7.21;88.53;102382.66;5058150;28;20035;-94
2023/04/18 01:04:07;;;;;;;14.88;9.60;;;;;;;7.23;87.37;102388.72;5076018;28;20140;-94
2023/04/18 01:06:36;;;;;;;14.88;9.23;;;;;;;7.26;86.64;102393.81;5057605;28;20488;-93
2023/04/18 01:09:06;;;;;;;17.70;8.67;;;;;;;7.23;85.96;102394.13;5058026;28;20024;-95
2023/04/18 01:11:31;;;;;;;17.08;8.82;;;;;;;7.15;85.56;102388.69;5075922;28;20090;-94
2023/04/18 01:14:04;;;;;;;16.77;8.70;;;;;;;7.13;85.00;102380.75;5075660;28;20037;-94
2023/04/18 01:16:33;;;;;;;13.32;8.60;;;;;;;7.18;83.65;102393.75;5075755;28;20119;-94
2023/04/18 01:19:10;;;;;;;16.70;8.88;;;;;;;7.11;83.63;102384.59;5041701;28;20036;-94
2023/04/18 01:21:36;;;;;;;13.30;8.30;;;;;;;7.10;82.18;102381.06;5057391;28;20021;-94
2023/04/18 01:24:12;;;;;;;18.03;8.50;;;;;;;7.09;82.43;102382.03;5057584;28;20024;-94
2023/04/18 01:26:38;;;;;;;14.40;8.52;;;;;;;7.15;82.61;102400.31;5057476;28;20048;-94
2023/04/18 01:29:04;;;;;;;17.30;8.47;;;;;;;7.07;82.32;102383.19;5058253;28;20119;-94
2023/04/18 01:31:35;;;;;;;12.98;8.23;;;;;;;7.01;81.83;102379.25;5057416;28;20025;-94
2023/04/18 01:34:03;;;;;;;13.55;8.20;;;;;;;6.93;81.66;102379.19;5075368;28;20154;-94
2023/04/18 01:36:29;;;;;;;15.13;8.43;;;;;;;6.88;81.68;102368.00;5075323;28;20036;-94
2023/04/18 01:38:57;;;;;;;13.90;8.00;;;;;;;6.82;82.19;102373.03;5075144;28;20138;-94
2023/04/18 01:41:26;;;;;;;12.63;7.63;;;;;;;6.80;81.99;102368.78;5057383;28;20305;-94
2023/04/18 01:43:51;;;;;;;16.15;7.95;;;;;;;6.80;81.39;102368.78;5057368;28;20553;-94
2023/04/18 01:46:19;;;;;;;19.07;8.53;;;;;;;6.74;81.50;102372.09;5057108;28;20021;-94
2023/04/18 01:48:47;;;;;;;15.20;8.57;;;;;;;6.70;81.40;102362.59;5056963;28;20028;-94
2023/04/18 01:51:12;;;;;;;13.75;8.77;;;;;;;6.67;81.92;102361.03;5056926;28;20400;-94
2023/04/18 01:53:43;;;;;;;15.50;8.17;;;;;;;6.63;82.62;102351.59;5057216;28;20025;-94
2023/04/18 01:56:09;;;;;;;14.75;8.35;;;;;;;6.60;82.90;102354.56;5057437;28;20035;-94
2023/04/18 01:58:35;;;;;;;16.05;7.97;;;;;;;6.57;83.01;102361.13;5056758;28;20037;-94
2023/04/18 02:01:04;;;;;;;12.57;8.70;;;;;;;6.54;83.33;102361.44;5056775;28;20021;-94
2023/04/18 02:03:31;;;;;;;17.35;9.40;;;;;;;6.52;83.69;102362.56;5073599;28;20036;-94
2023/04/18 02:06:03;;;;;;;12.85;8.70;;;;;;;6.47;84.13;102363.03;5057625;28;20083;-94
2023/04/18 02:08:34;;;;;;;13.75;8.40;;;;;;;6.45;83.94;102363.19;5074849;28;20055;-94
2023/04/18 02:11:00;;;;;;;14.93;8.55;;;;;;;6.41;84.11;102364.47;5057051;28;20373;-93
2023/04/18 02:13:26;;;;;;;16.07;8.30;;;;;;;6.35;83.53;102356.13;5056728;28;20464;-94
2023/04/18 02:15:51;;;;;;;13.32;8.30;;;;;;;6.32;83.81;102360.84;5056977;28;20078;-93
2023/04/18 02:18:20;;;;;;;16.10;8.10;;;;;;;6.29;83.86;102361.13;5056446;28;20028;-94
2023/04/18 02:20:49;;;;;;;12.48;8.75;;;;;;;6.27;83.90;102352.34;5056686;28;20044;-94
2023/04/18 02:23:14;;;;;;;12.73;8.20;;;;;;;6.24;84.38;102351.81;5056492;28;20067;-93
2023/04/18 02:25:44;;;;;;;16.87;8.90;;;;;;;6.20;84.02;102353.09;5040071;28;20468;-93
2023/04/18 02:28:10;;;;;;;17.75;8.88;;;;;;;6.13;84.38;102351.00;5039808;28;20060;-94
2023/04/18 02:30:35;;;;;;;16.67;8.40;;;;;;;6.16;84.48;102363.34;5074028;28;20092;-93
2023/04/18 02:33:03;;;;;;;14.50;8.70;;;;;;;6.07;83.93;102357.00;5056442;28;20063;-93
2023/04/18 02:35:42;;;;;;;14.35;9.00;;;;;;;6.05;84.14;102358.13;5056414;28;20275;-94
2023/04/18 02:38:07;;;;;;;14.55;8.68;;;;;;;6.02;84.46;102358.44;5041586;28;20036;-94
2023/04/18 02:40:32;;;;;;;14.60;7.83;;;;;;;5.97;83.95;102356.19;5056753;28;20033;-94
2023/04/18 02:42:58;;;;;;;13.80;8.45;;;;;;;6.02;84.09;102364.66;5056312;28;20037;-94
2023/04/18 02:45:24;;;;;;;14.17;8.53;;;;;;;5.89;84.25;102354.19;5057094;28;20303;-94
2023/04/18 02:47:51;;;;;;;13.13;8.17;;;;;;;5.85;84.77;102351.97;5056377;28;20457;-93
2023/04/18 02:50:20;;;;;;;17.67;8.30;;;;;;;5.84;84.58;102361.03;5074341;28;20519;-94
2023/04/18 02:52:45;;;;;;;14.75;8.70;;;;;;;5.83;85.19;102367.41;5055650;28;20024;-94
2023/04/18 02:55:13;;;;;;;15.70;8.50;;;;;;;5.71;85.53;102355.94;5056290;28;20029;-94
2023/04/18 02:57:48;;;;;;;14.80;8.90;;;;;;;5.78;85.82;102367.84;5056663;28;20028;-93
2023/04/18 03:00:16;;;;;;;14.85;8.48;;;;;;;5.71;85.64;102364.88;5074194;28;20495;-94
2023/04/18 03:02:45;;;;;;;15.70;9.02;;;;;;;5.62;85.85;102358.53;5056312;28;20430;-94
2023/04/18 03:05:10;;;;;;;14.13;8.20;;;;;;;5.61;86.54;102364.06;5056069;28;20029;-93
2023/04/18 03:07:38;;;;;;;14.48;8.52;;;;;;;5.67;86.14;102370.69;5073771;28;20031;-93
2023/04/18 03:10:06;;;;;;;13.27;8.20;;;;;;;5.58;86.50;102358.94;5039821;28;20120;-93
2023/04/18 03:12:35;;;;;;;13.68;8.40;;;;;;;5.53;86.08;102356.69;5077694;28;20058;-94
2023/04/18 03:15:06;;;;;;;17.08;8.45;;;;;;;5.58;86.17;102365.22;5060278;28;20028;-94
2023/04/18 03:17:34;;;;;;;13.55;8.07;;;;;;;5.50;86.52;102359.69;5060209;28;20032;-94
2023/04/18 03:20:03;;;;;;;12.77;8.50;;;;;;;5.51;86.68;102365.94;5060136;28;20043;-94
2023/04/18 03:22:31;;;;;;;13.03;8.10;;;;;;;5.49;86.40;102368.75;5043678;28;20048;-93
2023/04/18 03:24:58;;;;;;;12.68;8.38;;;;;;;5.38;86.42;102359.00;5077692;28;20115;-93
2023/04/18 03:27:29;;;;;;;13.35;8.13;;;;;;;5.49;86.41;102381.38;5056218;28;20048;-93
2023/04/18 03:30:02;;;;;;;17.02;8.82;;;;;;;5.40;86.60;102366.94;5056738;28;20102;-94
2023/04/18 03:32:32;;;;;;;14.43;8.75;;;;;;;5.34;87.01;102362.97;5059790;28;20068;-93
2023/04/18 03:35:01;;;;;;;11.83;8.30;;;;;;;5.38;87.07;102371.63;5043421;28;20127;-94
2023/04/18 03:37:29;;;;;;;17.50;8.77;;;;;;;5.30;86.93;102363.41;5059694;28;20039;-94
2023/04/18 03:39:58;;;;;;;17.85;8.95;;;;;;;5.35;86.73;102374.59;5077719;28;20510;-94
2023/04/18 03:42:25;;;;;;;13.05;8.60;;;;;;;5.22;86.80;102364.97;5059729;28;20032;-94
2023/04/18 03:44:51;;;;;;;14.55;8.52;;;;;;;5.20;86.84;102366.13;5078119;28;20028;-93
2023/04/18 03:47:16;;;;;;;15.73;8.80;;;;;;;5.16;86.87;102362.00;5059623;28;20033;-93
2023/04/18 03:49:51;;;;;;;14.87;8.77;;;;;;;5.13;87.02;102362.28;5059553;28;20028;-94
2023/04/18 03:52:18;;;;;;;15.70;8.50;;;;;;;5.08;86.93;102357.34;5076956;28;20441;-93
2023/04/18 03:54:44;;;;;;;14.23;8.88;;;;;;;5.03;87.58;102363.13;5059232;28;20032;-93
2023/04/18 03:57:12;;;;;;;14.10;8.37;;;;;;;5.02;87.58;102374.03;5076950;28;20464;-94
2023/04/18 03:59:40;;;;;;;13.05;8.27;;;;;;;4.96;87.42;102364.72;5059299;28;20025;-93
2023/04/18 04:02:13;;;;;;;13.57;8.57;;;;;;;4.96;87.55;102377.28;5043506;28;20028;-93
2023/04/18 04:04:41;;;;;;;14.90;8.10;;;;;;;4.90;87.35;102360.72;5043480;28;20064;-93
2023/04/18 04:07:07;;;;;;;15.25;8.63;;;;;;;4.92;87.90;102369.50;5076896;28;20474;-93
2023/04/18 04:09:45;;;;;;;17.27;9.05;;;;;;;4.86;87.99;102363.84;5077296;28;20032;-93
2023/04/18 04:12:18;;;;;;;15.00;8.90;;;;;;;4.89;87.95;102368.94;5042998;28;20106;-93
2023/04/18 04:14:46;;;;;;;14.30;8.40;;;;;;;4.89;88.11;102368.94;5059599;28;20032;-92
2023/04/18 04:17:21;;;;;;;14.32;8.30;;;;;;;4.82;87.89;102365.13;5060135;28;20056;-93
2023/04/18 04:19:57;;;;;;;12.35;8.20;;;;;;;4.88;87.87;102378.00;5058712;28;20043;-93
2023/04/18 04:22:23;;;;;;;16.27;8.48;;;;;;;4.78;88.11;102366.38;5041404;28;20036;-93
2023/04/18 04:24:48;;;;;;;14.00;8.90;;;;;;;4.76;88.31;102373.75;5059048;28;20021;-94
2023/04/18 04:27:17;;;;;;;17.80;8.60;;;;;;;4.79;88.26;102390.44;5058660;28;20052;-93
2023/04/18 04:29:43;;;;;;;13.68;8.70;;;;;;;4.73;88.91;102381.09;5059406;28;20032;-93
2023/04/18 04:32:09;;;;;;;13.75;8.77;;;;;;;4.63;88.88;102372.16;5058774;28;20032;-93
2023/04/18 04:34:37;;;;;;;12.63;8.27;;;;;;;4.70;88.79;102384.06;5058556;28;20035;-93
2023/04/18 04:37:23;;;;;;;14.07;8.30;;;;;;;4.66;88.72;102377.25;5058526;28;20020;-93
2023/04/18 04:39:48;;;;;;;15.00;7.93;;;;;;;4.65;88.81;102370.19;5057983;28;20055;-93
2023/04/18 04:42:24;;;;;;;16.73;8.80;;;;;;;4.73;89.09;102386.47;5058720;28;20468;-93
2023/04/18 04:44:57;;;;;;;15.02;8.63;;;;;;;4.68;88.76;102385.19;5058198;28;20051;-93
2023/04/18 04:47:24;;;;;;;12.93;7.78;;;;;;;4.68;89.26;102387.88;5041964;28;20054;-93
2023/04/18 04:49:50;;;;;;;13.35;8.57;;;;;;;4.64;89.21;102378.41;5075822;28;20029;-91
2023/04/18 04:52:15;;;;;;;12.77;8.23;;;;;;;4.63;89.28;102384.75;5057376;28;20032;-91
2023/04/18 04:54:46;;;;;;;12.60;8.07;;;;;;;4.64;89.04;102390.00;5057932;28;20032;-92
2023/04/18 04:57:17;;;;;;;13.43;8.45;;;;;;;4.63;89.54;102390.13;5058459;28;20025;-92
2023/04/18 04:59:42;;;;;;;13.75;8.35;;;;;;;4.68;89.40;102387.88;5074674;28;20058;-92
2023/04/18 05:02:08;;;;;;;12.47;8.10;;;;;;;4.64;89.14;102381.94;5057882;28;20028;-92
2023/04/18 05:04:38;;;;;;;13.13;8.15;;;;;;;4.67;88.99;102388.88;5075409;28;20144;-92
2023/04/18 05:07:07;;;;;;;15.45;7.53;;;;;;;4.64;88.78;102386.47;5074477;28;20028;-92
2023/04/18 05:09:35;;;;;;;12.98;8.18;;;;;;;4.73;89.31;102405.28;5075474;28;20037;-92
2023/04/18 05:12:09;;;;;;;15.52;8.35;;;;;;;4.66;88.72;102382.63;5058126;28;20052;-92
2023/04/18 05:14:37;;;;;;;14.07;7.85;;;;;;;4.62;89.07;102381.22;5057977;28;20028;-92
2023/04/18 05:17:03;;;;;;;14.25;7.90;;;;;;;4.66;88.56;102385.31;5074948;28;20056;-91
2023/04/18 05:19:31;;;;;;;12.15;7.95;;;;;;;4.70;88.49;102389.44;5056574;28;20078;-91
2023/04/18 05:22:04;;;;;;;14.68;8.63;;;;;;;4.69;88.36;102393.09;5056459;28;20465;-91
2023/04/18 05:24:32;;;;;;;13.25;7.78;;;;;;;4.77;88.11;102402.31;5057102;28;20506;-91
2023/04/18 05:27:01;;;;;;;13.98;7.45;;;;;;;4.70;87.53;102388.59;5057075;28;20064;-91
2023/04/18 05:29:29;;;;;;;15.57;8.00;;;;;;;4.71;88.14;102392.97;5056605;28;20035;-91
2023/04/18 05:31:57;;;;;;;13.45;7.88;;;;;;;4.76;88.28;102395.25;5056533;28;20050;-91
2023/04/18 05:34:22;;;;;;;12.52;7.93;;;;;;;4.77;87.93;102400.50;5039279;28;20040;-91
2023/04/18 05:36:48;;;;;;;10.80;8.00;;;;;;;4.83;87.38;102401.78;5074613;28;20027;-91
2023/04/18 05:39:14;;;;;;;12.50;7.77;;;;;;;4.88;87.07;102402.19;5074292;28;20111;-91
2023/04/18 05:41:44;;;;;;;13.48;7.97;;;;;;;5.00;86.75;102416.38;5056442;28;20036;-92
2023/04/18 05:44:23;;;;;;;13.55;7.80;;;;;;;5.09;86.13;102400.25;5057354;28;20066;-91
2023/04/18 05:46:50;;;;;;;12.87;7.83;;;;;;;5.27;86.11;102411.16;5040596;28;20479;-90
2023/04/18 05:49:19;;;;;;;12.98;7.88;;;;;;;5.49;85.15;102414.50;5056333;28;20043;-91
2023/04/18 05:51:45;;;;;;;16.50;8.05;;;;;;;5.72;84.72;102422.28;5055987;28;20036;-90
2023/04/18 05:54:26;;;;;;;13.07;7.85;;;;;;;5.89;83.69;102418.00;5056297;28;20028;-90
2023/04/18 05:56:55;;;;;;;11.63;7.28;;;;;;;6.04;83.70;102413.00;5056072;28;20029;-90
2023/04/18 05:59:21;;;;;;;11.67;7.50;;;;;;;6.14;82.95;102412.00;5056317;28;20589;-90
2023/04/18 06:01:48;;;;;;;14.55;8.10;;;;;;;6.37;81.83;102429.66;5055997;28;20028;-90
2023/04/18 06:04:17;;;;;;;12.98;7.65;;;;;;;6.40;82.15;102411.31;5056102;28;20392;-90
2023/04/18 06:06:45;;;;;;;12.00;7.38;;;;;;;6.55;82.36;102422.44;5056518;28;20093;-91
2023/04/18 06:09:10;;;;;;;13.10;8.00;;;;;;;6.73;80.99;102427.91;5058090;28;20479;-95
2023/04/18 06:11:36;;;;;;;14.90;7.63;;;;;;;6.88;80.49;102416.56;5075037;28;20032;-93
2023/04/18 06:14:02;;;;;;;14.82;7.90;;;;;;;7.00;79.25;102410.81;5057485;28;20055;-93
2023/04/18 06:16:30;;;;;;;12.63;7.13;;;;;;;7.23;78.91;102423.84;5058896;28;20025;-95
2023/04/18 06:18:56;;;;;;;14.38;7.40;;;;;;;7.20;78.17;102425.00;5040436;28;20457;-96
2023/04/18 06:21:24;;;;;;;11.60;7.75;;;;;;;7.22;78.57;102421.28;5074538;28;20032;-91
2023/04/18 06:23:50;;;;;;;12.63;7.68;;;;;;;7.20;78.30;102433.09;5039875;28;20033;-93
2023/04/18 06:26:16;;;;;;;12.73;7.80;;;;;;;7.13;79.16;102425.75;5056325;28;20511;-89
2023/04/18 06:28:44;;;;;;;11.77;8.27;;;;;;;7.15;78.65;102435.41;5075549;28;20072;-91
2023/04/18 06:31:15;;;;;;;11.18;7.28;;;;;;;7.08;78.64;102428.09;5074104;28;20090;-92
2023/04/18 06:33:40;;;;;;;15.10;8.00;;;;;;;7.14;79.38;102431.00;5057207;28;20020;-95
2023/04/18 06:36:07;;;;;;;14.95;8.32;;;;;;;7.35;79.09;102430.72;5074418;28;20107;-96
2023/04/18 06:38:33;;;;;;;16.37;7.60;;;;;;;7.54;78.76;102428.81;5056846;28;20036;-95
2023/04/18 06:40:58;;;;;;;15.15;8.18;;;;;;;7.77;78.52;102431.88;5081876;28;20093;-96
2023/04/18 06:43:24;;;;;;;11.53;7.40;;;;;;;8.03;76.92;102439.13;5043730;28;20392;-94
2023/04/18 06:45:55;;;;;;;11.50;7.67;;;;;;;8.20;76.08;102429.28;5074529;28;20035;-92
2023/04/18 06:48:23;;;;;;;12.15;7.50;;;;;;;8.25;75.35;102437.72;5056005;28;20085;-92
2023/04/18 06:50:53;;;;;;;12.10;7.03;;;;;;;8.36;75.34;102434.75;5056076;28;20075;-92
2023/04/18 06:53:26;;;;;;;16.08;7.70;;;;;;;8.45;75.09;102438.38;5038692;28;20480;-92
2023/04/18 06:56:01;;;;;;;12.03;7.40;;;;;;;8.59;74.47;102431.50;5072686;28;20033;-91
2023/04/18 06:58:27;;;;;;;13.15;7.43;;;;;;;8.74;73.98;102443.41;5055972;28;20082;-92
2023/04/18 07:00:55;;;;;;;14.13;7.40;;;;;;;8.81;73.56;102438.16;5057081;28;20032;-92
2023/04/18 07:03:25;;;;;;;10.33;7.40;;;;;;;8.93;73.06;102444.97;5055207;28;20461;-93
2023/04/18 07:06:07;;;;;;;11.82;7.65;;;;;;;9.10;72.80;102455.84;5055577;28;20500;-93
2023/04/18 07:08:40;;;;;;;12.10;7.63;;;;;;;9.13;72.58;102447.38;5073801;28;20024;-92
2023/04/18 07:11:17;;;;;;;14.38;7.93;;;;;;;9.28;72.01;102461.09;5055645;28;20096;-92
2023/04/18 07:13:49;;;;;;;11.20;7.40;;;;;;;9.32;71.49;102446.22;5057055;28;20461;-93
2023/04/18 07:16:18;;;;;;;10.33;7.00;;;;;;;9.45;71.80;102443.84;5055431;28;20037;-92
2023/04/18 07:18:54;;;;;;;12.25;7.07;;;;;;;9.54;70.93;102457.41;5073809;28;20031;-92
2023/04/18 07:21:23;;;;;;;10.65;7.30;;;;;;;9.59;71.51;102463.16;5055582;28;20041;-92
2023/04/18 07:23:51;;;;;;;8.70;6.80;;;;;;;9.50;70.77;102448.75;5039231;28;20392;-92
2023/04/18 07:26:30;;;;;;;13.77;7.05;;;;;;;9.48;71.08;102446.22;5039479;28;20044;-92
2023/04/18 07:29:02;;;;;;;9.67;7.07;;;;;;;9.64;71.06;102450.81;5055298;28;20129;-91
2023/04/18 07:31:36;;;;;;;9.60;6.57;;;;;;;9.80;71.12;102457.22;5055985;28;20131;-91
2023/04/18 07:34:01;;;;;;;9.57;6.95;;;;;;;9.98;70.46;102468.72;5039133;28;20032;-92
2023/04/18 07:36:30;;;;;;;9.63;6.67;;;;;;;9.99;69.53;102451.44;5055162;28;20032;-92
2023/04/18 07:38:56;;;;;;;10.40;7.18;;;;;;;9.92;69.63;102458.56;5055254;28;20037;-92
2023/04/18 07:41:30;;;;;;;9.25;6.97;;;;;;;9.93;70.08;102452.13;5054985;28;20089;-92
2023/04/18 07:44:00;;;;;;;11.80;6.90;;;;;;;9.99;69.55;102456.88;5055376;28;20024;-92
2023/04/18 07:46:31;;;;;;;10.05;7.57;;;;;;;10.03;69.94;102470.94;5039668;28;20036;-92
2023/04/18 07:49:01;;;;;;;10.40;6.67;;;;;;;9.98;70.33;102474.16;5038699;28;20044;-92
2023/04/18 07:51:37;;;;;;;8.75;6.63;;;;;;;9.90;71.04;102457.06;5055227;28;20033;-91
2023/04/18 07:54:05;;;;;;;11.18;6.82;;;;;;;9.96;69.98;102464.50;5055191;28;20032;-91
2023/04/18 07:56:32;;;;;;;10.77;6.55;;;;;;;9.97;70.59;102466.19;5026463;28;20033;-91
2023/04/18 07:59:00;;;;;;;9.57;6.72;;;;;;;10.00;70.53;102463.97;5010101;28;20028;-92
2023/04/18 08:01:31;;;;;;;10.23;6.67;;;;;;;10.22;69.60;102460.72;5022516;28;20033;-92
2023/04/18 08:04:00;;;;;;;9.25;6.85;;;;;;;10.46;69.16;102467.97;5026452;28;20033;-92
2023/04/18 08:06:35;;;;;;;11.00;6.50;;;;;;;10.47;68.83;102467.78;5029120;28;20064;-92
2023/04/18 08:09:06;;;;;;;9.35;6.68;;;;;;;10.48;68.30;102463.19;5044601;28;20117;-92
2023/04/18 08:11:34;;;;;;;10.73;6.40;;;;;;;10.52;68.70;102469.97;5027152;28;20021;-92
2023/04/18 08:14:03;;;;;;;12.03;6.23;;;;;;;10.75;67.53;102474.63;5032442;28;20057;-91
2023/04/18 08:16:36;;;;;;;12.23;6.55;;;;;;;10.87;67.27;102473.22;5018738;28;20041;-91
2023/04/18 08:19:01;;;;;;;13.77;6.43;;;;;;;11.00;66.71;102476.19;5018799;28;20037;-92
2023/04/18 08:21:38;;;;;;;10.20;6.60;;;;;;;11.24;66.24;102467.03;5018900;28;20042;-92
2023/04/18 08:24:04;;;;;;;11.53;6.73;;;;;;;11.39;64.87;102467.09;5002517;28;20056;-92
2023/04/18 08:26:52;;;;;;;9.02;6.20;;;;;;;11.44;64.84;102472.03;5025642;28;20493;-93
2023/04/18 08:29:26;;;;;;;8.88;6.80;;;;;;;11.56;64.81;102470.56;5009351;28;20033;-92
2023/04/18 08:31:56;;;;;;;10.02;6.60;;;;;;;11.71;64.10;102473.31;5053401;28;20037;-92
2023/04/18 08:34:31;;;;;;;10.55;6.50;;;;;;;11.84;63.17;102477.28;5026117;28;20040;-91
2023/04/18 08:36:59;;;;;;;9.40;6.87;;;;;;;11.90;62.59;102479.28;5055742;28;20052;-92
2023/04/18 08:39:25;;;;;;;9.77;6.47;;;;;;;12.01;62.63;102478.00;5055908;28;20025;-92
2023/04/18 08:41:56;;;;;;;10.05;7.30;;;;;;;12.09;62.42;102481.50;5037526;28;20492;-92
2023/04/18 08:44:34;;;;;;;9.63;7.30;;;;;;;12.27;62.39;102483.84;5037792;28;20057;-93
2023/04/18 08:47:05;;;;;;;9.65;6.72;;;;;;;12.39;61.69;102467.06;5015060;28;20057;-92
2023/04/18 08:49:30;;;;;;;10.48;7.15;;;;;;;12.62;60.79;102475.97;5021370;28;20041;-92
2023/04/18 08:52:03;;;;;;;9.53;6.77;;;;;;;12.74;60.50;102473.59;5037611;28;20079;-91
2023/04/18 08:54:40;;;;;;;;;;;;;;;;;;;;;
2023/04/18 08:57:15;;;;;;;9.70;6.75;;;;;;;12.78;60.30;102464.03;5055202;28;20037;-92
2023/04/18 08:59:44;;;;;;;7.72;6.50;;;;;;;12.98;59.99;102468.88;5036848;28;20111;-92
2023/04/18 09:02:19;;;;;;;8.57;6.25;;;;;;;13.34;58.82;102470.75;5034541;28;20055;-92
2023/04/18 09:04:47;;;;;;;7.97;6.70;;;;;;;13.60;58.01;102445.63;5037091;28;20131;-92
2023/04/18 09:07:28;;;;;;;8.50;7.05;;;;;;;13.97;56.67;102459.97;5037080;28;20029;-92
2023/04/18 09:10:00;;;;;;;7.70;6.50;;;;;;;13.99;55.79;102452.41;5052467;28;20435;-92
2023/04/18 09:12:50;;;;;;;9.35;6.72;;;;;;;13.99;56.38;102455.13;5037007;28;20032;-93
2023/04/18 09:15:22;;;;;;;8.20;6.80;;;;;;;13.72;56.40;102445.09;5036690;28;20112;-92
2023/04/18 09:17:51;;;;;;;9.07;6.43;;;;;;;13.85;56.37;102446.03;5037009;28;20132;-92
2023/04/18 09:20:39;;;;;;;9.95;7.22;;;;;;;13.98;56.41;102458.06;5036920;28;20393;-92
2023/04/18 09:23:23;;;;;;;9.07;6.95;;;;;;;13.97;56.57;102442.75;5036661;28;20041;-93
2023/04/18 09:25:50;;;;;;;11.55;7.15;;;;;;;14.12;54.21;102457.13;5036523;28;20028;-92
2023/04/18 09:28:27;;;;;;;11.27;7.07;;;;;;;14.05;54.21;102448.03;5056520;28;20040;-92
2023/04/18 09:31:10;;;;;;;8.40;6.80;;;;;;;14.12;53.77;102450.81;5050714;28;20124;-92
2023/04/18 09:33:48;;;;;;;8.45;6.80;;;;;;;14.02;53.08;102449.31;5055940;28;20111;-91
2023/04/18 09:36:34;;;;;;;10.10;6.82;;;;;;;14.08;53.76;102447.63;5056290;28;20044;-91
2023/04/18 09:39:05;;;;;;;9.10;6.75;;;;;;;14.18;52.42;102450.03;5073552;28;20464;-91
2023/04/18 09:41:58;;;;;;;8.05;6.30;;;;;;;14.28;52.75;102436.03;5056522;28;20093;-91
2023/04/18 09:44:26;;;;;;;8.67;6.17;;;;;;;14.33;51.45;102436.25;5073333;28;20036;-90
2023/04/18 09:46:57;;;;;;;8.40;6.25;;;;;;;14.21;52.21;102434.06;5073471;28;20024;-92
2023/04/18 09:49:26;;;;;;;8.23;6.20;;;;;;;14.16;52.82;102436.56;5074315;28;20028;-91
2023/04/18 09:51:55;;;;;;;9.90;6.35;;;;;;;14.24;52.17;102432.84;5055973;28;20059;-91
2023/04/18 09:54:24;;;;;;;8.07;6.18;;;;;;;14.24;51.49;102427.38;5056795;28;20029;-91
2023/04/18 09:56:52;;;;;;;8.60;6.43;;;;;;;14.34;51.62;102437.94;5055382;28;20032;-91
2023/04/18 10:00:07;;;;;;;9.70;6.82;;;;;;;14.50;52.38;102425.84;5073035;28;20029;-91
2023/04/18 10:02:39;;;;;;;8.23;5.90;;;;;;;14.86;50.26;102444.69;5056254;28;20025;-91
2023/04/18 10:05:18;;;;;;;;;;;;;;;;;;;;;
2023/04/18 10:07:52;;;;;;;6.82;5.63;;;;;;;15.78;48.21;102416.84;5073951;28;20040;-91
2023/04/18 10:10:18;;;;;;;8.40;5.47;;;;;;;16.26;46.52;102437.63;5073532;28;20048;-91
2023/04/18 10:12:50;;;;;;;6.97;5.13;;;;;;;16.14;45.91;102432.81;5072683;28;20039;-91
2023/04/18 10:15:23;;;;;;;6.22;5.35;;;;;;;15.85;46.15;102431.38;5072919;28;20103;-91
2023/04/18 10:17:59;;;;;;;5.32;4.65;;;;;;;15.76;46.86;102418.94;5056828;28;20028;-92
2023/04/18 10:20:27;;;;;;;10.43;5.03;;;;;;;15.60;47.24;102434.75;5073598;28;20028;-91
2023/04/18 10:22:54;;;;;;;5.53;4.70;;;;;;;15.61;47.48;102428.19;5055169;28;20431;-92
2023/04/18 10:25:40;;;;;;;6.60;5.18;;;;;;;16.00;47.93;102447.56;5072635;28;20127;-91
2023/04/18 10:28:08;;;;;;;4.90;4.20;;;;;;;16.00;46.17;102422.94;5056080;28;20072;-91
2023/04/18 10:30:42;;;;;;;5.47;4.35;;;;;;;15.88;45.52;102436.41;5056252;28;20036;-91
2023/04/18 10:33:24;;;;;;;4.75;3.88;;;;;;;15.51;46.37;102441.47;5074520;28;20491;-91
2023/04/18 10:36:19;;;;;;;4.50;3.83;;;;;;;15.18;47.62;102439.53;5056336;28;20040;-91
2023/04/18 10:38:52;;;;;;;5.10;3.83;;;;;;;15.14;46.57;102453.81;5055720;28;20070;-90
2023/04/18 10:41:18;;;;;;;4.63;3.97;;;;;;;15.31;46.16;102429.66;5055422;28;20024;-94
2023/04/18 10:44:06;;;;;;;4.68;4.03;;;;;;;15.73;46.61;102444.81;5055950;28;20179;-95
2023/04/18 10:46:35;;;;;;;6.05;4.03;;;;;;;16.15;44.64;102447.34;5056397;28;20024;-94
2023/04/18 10:49:20;;;;;;;5.03;3.93;;;;;;;16.59;45.11;102447.63;5057311;28;20021;-92
2023/04/18 10:51:51;;;;;;;5.88;4.00;;;;;;;16.88;43.32;102439.94;5055287;28;20036;-91
2023/04/18 10:54:31;;;;;;;5.38;4.25;;;;;;;16.96;43.67;102443.28;5074583;28;20024;-95
2023/04/18 10:56:58;;;;;;;4.80;4.15;;;;;;;17.28;42.45;102446.03;5057274;28;20086;-91
2023/04/18 10:59:25;;;;;;;5.97;4.00;;;;;;;17.51;41.94;102439.13;5073408;28;20028;-91
2023/04/18 11:02:12;;;;;;;10.60;5.00;;;;;;;17.49;42.88;102443.97;5071776;28;20020;-92
2023/04/18 11:04:38;;;;;;;7.32;4.80;;;;;;;17.33;42.14;102451.69;5055722;28;20484;-93
2023/04/18 11:07:04;;;;;;;4.97;4.47;;;;;;;17.22;42.05;102444.16;5055209;28;20035;-86
2023/04/18 11:09:32;;;;;;;5.60;4.63;;;;;;;16.75;42.95;102436.16;5055431;28;20491;-95
2023/04/18 11:14:48;;;;;;;5.68;4.93;;;;;;;16.39;44.29;102437.59;4498335;22;20113;-95
2023/04/18 11:17:26;;;;;;;6.97;5.17;;;;;;;16.28;44.60;102441.84;5094782;28;20122;-95
2023/04/18 11:20:11;;;;;;;6.93;5.22;;;;;;;16.20;45.10;102427.53;5076208;28;20509;-95
2023/04/18 11:23:08;;;;;;;6.72;4.63;;;;;;;16.44;44.94;102424.06;5075408;28;20051;-95
2023/04/18 11:25:43;;;;;;;10.20;5.57;;;;;;;16.31;45.37;102429.59;5093840;28;20494;-95
2023/04/18 11:28:24;;;;;;;;;;;;;;;;;;;;;
2023/04/18 11:31:01;;;;;;;7.17;5.87;;;;;;;15.99;45.29;102434.94;5094664;28;20030;-95
2023/04/18 11:33:34;;;;;;;8.52;5.95;;;;;;;15.56;46.40;102418.94;5063857;28;20036;-96
2023/04/18 11:36:06;;;;;;;7.20;5.45;;;;;;;15.60;47.00;102425.69;5066103;28;20016;-91
2023/04/18 11:38:37;;;;;;;7.70;6.15;;;;;;;15.54;47.49;102429.25;5063995;28;20039;-92
2023/04/18 11:41:17;;;;;;;12.10;6.90;;;;;;;15.60;47.08;102417.47;5079566;28;20036;-92
2023/04/18 11:43:44;;;;;;;7.77;6.03;;;;;;;15.71;46.68;102427.78;5097272;28;20106;-92
2023/04/18 11:46:11;;;;;;;7.88;6.60;;;;;;;15.70;46.86;102425.25;5078819;28;20081;-91
2023/04/18 11:48:46;;;;;;;8.52;7.47;;;;;;;15.64;47.26;102426.94;5079020;28;20024;-92